Aviation Digital Data Service (ADDS)

Output produced by METARs form (2134 UTC 30 January 2015)
found at http://www.aviationweather.gov/adds/metars/
 
KMIV 302054Z AUTO 30016G28KT 10SM SCT060 02/M04 A2995 RMK AO2 PK WND 29036/2012 SLP143 T00171039 53017
KMIV 301735Z 3018/3118 32016G28KT P6SM BKN035 
     FM302200 31021G38KT P6SM SCT030 
     FM310800 31016G29KT P6SM SKC 
     FM311400 31018G33KT P6SM SCT250